Time;durP1;ratioP1;P1;durP2;ratioP2;P2;SDS_P1;SDS_P2;PMS_P1;PMS_P2;Temp;Humidity;BMP_temperature;BMP_pressure;BME280_temperature;BME280_humidity;BME280_pressure;Samples;Min_cycle;Max_cycle;Signal;HPM_P1;HPM_P2
2023/09/21 00:01:15;;;;;;;7.82;1.30;;;10.50;99.90;;;;;;5110151;28;20047;-56
2023/09/21 00:03:44;;;;;;;11.45;1.30;;;10.40;99.90;;;;;;5109213;28;20051;-55
2023/09/21 00:06:17;;;;;;;10.20;2.63;;;10.40;99.90;;;;;;5106594;28;20043;-56
2023/09/21 00:08:48;;;;;;;14.23;1.20;;;10.40;99.90;;;;;;5103460;28;20048;-56
2023/09/21 00:11:17;;;;;;;9.35;1.02;;;10.30;99.90;;;;;;5109654;28;20044;-56
2023/09/21 00:13:44;;;;;;;13.95;1.63;;;10.30;99.90;;;;;;5117880;27;20057;-55
2023/09/21 00:16:12;;;;;;;8.00;0.98;;;10.30;99.90;;;;;;5112185;27;20054;-55
2023/09/21 00:18:44;;;;;;;13.23;1.50;;;10.30;99.90;;;;;;5108894;28;20059;-55
2023/09/21 00:21:12;;;;;;;19.02;2.53;;;10.30;99.90;;;;;;5105231;27;20048;-56
2023/09/21 00:23:43;;;;;;;9.10;1.40;;;10.20;99.90;;;;;;5107502;28;20433;-56
2023/09/21 00:26:11;;;;;;;10.55;1.20;;;10.20;99.90;;;;;;5109255;28;20502;-55
2023/09/21 00:28:43;;;;;;;9.50;1.38;;;10.20;99.90;;;;;;5108930;28;20052;-56
2023/09/21 00:31:12;;;;;;;10.88;1.67;;;10.20;99.90;;;;;;5107723;28;20043;-56
2023/09/21 00:33:41;;;;;;;10.80;1.75;;;10.10;99.90;;;;;;5105933;27;20039;-56
2023/09/21 00:36:09;;;;;;;9.73;1.23;;;10.10;99.90;;;;;;5109110;28;20047;-55
2023/09/21 00:38:37;;;;;;;16.85;1.90;;;10.10;99.90;;;;;;5107159;28;20043;-57
2023/09/21 00:41:05;;;;;;;8.82;1.38;;;10.10;99.90;;;;;;5107823;28;20036;-55
2023/09/21 00:43:33;;;;;;;12.32;1.35;;;10.00;99.90;;;;;;5108795;28;20035;-56
2023/09/21 00:46:06;;;;;;;12.45;2.15;;;10.00;99.90;;;;;;5108618;27;20056;-56
2023/09/21 00:48:40;;;;;;;8.40;1.48;;;10.00;99.90;;;;;;5112948;27;20039;-55
2023/09/21 00:51:12;;;;;;;11.65;1.58;;;10.00;99.90;;;;;;5112178;27;20592;-56
2023/09/21 00:53:44;;;;;;;8.63;1.15;;;10.00;99.90;;;;;;5110588;27;20051;-56
2023/09/21 00:56:17;;;;;;;15.60;1.50;;;9.90;99.90;;;;;;5121124;27;20039;-56
2023/09/21 00:58:49;;;;;;;15.25;2.05;;;9.90;99.90;;;;;;5116130;27;20067;-55
2023/09/21 01:01:22;;;;;;;15.77;1.50;;;9.90;99.90;;;;;;5128608;27;20035;-55
2023/09/21 01:03:52;;;;;;;11.05;2.03;;;9.90;99.90;;;;;;5120214;27;20054;-55
2023/09/21 01:06:23;;;;;;;8.52;1.40;;;9.90;99.90;;;;;;5125825;27;20050;-55
2023/09/21 01:08:51;;;;;;;;;;;9.90;99.90;;;;;;5100563;28;20630;-56
2023/09/21 01:11:20;;;;;;;9.57;1.63;;;9.80;99.90;;;;;;5108764;28;19920;-56
2023/09/21 01:13:48;;;;;;;11.52;2.40;;;9.80;99.90;;;;;;5117298;27;20039;-55
2023/09/21 01:16:17;;;;;;;9.63;1.60;;;9.80;99.90;;;;;;5113931;27;20035;-56
2023/09/21 01:18:46;;;;;;;11.25;1.30;;;9.80;99.90;;;;;;5114654;27;20051;-55
2023/09/21 01:21:17;;;;;;;16.42;1.58;;;9.70;99.90;;;;;;5109451;27;20059;-56
2023/09/21 01:23:49;;;;;;;14.90;2.08;;;9.70;99.90;;;;;;5110675;27;20062;-55
2023/09/21 01:26:18;;;;;;;12.10;0.98;;;9.70;99.90;;;;;;5128579;27;20074;-56
2023/09/21 01:28:50;;;;;;;10.40;1.90;;;9.60;99.90;;;;;;5128666;28;20411;-55
2023/09/21 01:31:18;;;;;;;10.00;1.42;;;9.60;99.90;;;;;;5110654;28;20040;-56
2023/09/21 01:33:46;;;;;;;10.25;1.27;;;9.60;99.90;;;;;;5121900;28;20043;-55
2023/09/21 01:36:16;;;;;;;8.40;1.73;;;9.50;99.90;;;;;;5089892;28;20480;-55
2023/09/21 01:38:44;;;;;;;11.40;1.83;;;9.50;99.90;;;;;;5098408;28;20043;-55
2023/09/21 01:41:14;;;;;;;22.63;1.67;;;9.50;99.90;;;;;;5111421;28;20047;-56
2023/09/21 01:43:42;;;;;;;9.37;1.23;;;9.50;99.90;;;;;;5099316;28;20051;-55
2023/09/21 01:46:10;;;;;;;11.43;2.05;;;9.40;99.90;;;;;;5099866;28;20486;-56
2023/09/21 01:48:41;;;;;;;15.68;2.35;;;9.50;99.90;;;;;;5110195;28;20490;-58
2023/09/21 01:51:12;;;;;;;14.57;2.17;;;9.40;99.90;;;;;;5111100;28;20066;-56
2023/09/21 01:53:39;;;;;;;10.75;1.23;;;9.50;99.90;;;;;;5111578;28;20050;-56
2023/09/21 01:56:07;;;;;;;9.25;1.13;;;9.40;99.90;;;;;;5111388;28;20055;-55
2023/09/21 01:58:35;;;;;;;7.90;1.15;;;9.40;99.90;;;;;;5110975;28;20075;-55
2023/09/21 02:01:06;;;;;;;10.98;1.42;;;9.40;99.90;;;;;;5115620;28;20058;-55
2023/09/21 02:03:34;;;;;;;8.20;1.75;;;9.40;99.90;;;;;;5127734;27;20050;-55
2023/09/21 02:06:02;;;;;;;17.60;1.70;;;9.50;99.90;;;;;;5094732;28;20040;-55
2023/09/21 02:08:31;;;;;;;15.82;1.77;;;9.50;99.90;;;;;;5094923;28;20528;-56
2023/09/21 02:10:59;;;;;;;8.33;1.67;;;9.50;99.90;;;;;;5093739;28;20055;-55
2023/09/21 02:13:30;;;;;;;19.73;2.55;;;9.50;99.90;;;;;;5092684;28;20055;-56
2023/09/21 02:15:58;;;;;;;11.20;1.35;;;9.50;99.90;;;;;;5119942;27;20481;-55
2023/09/21 02:18:26;;;;;;;13.38;1.63;;;9.50;99.90;;;;;;5134725;27;20054;-55
2023/09/21 02:20:55;;;;;;;15.70;1.52;;;9.50;99.90;;;;;;5120663;27;20364;-55
2023/09/21 02:23:24;;;;;;;;;;;9.50;99.90;;;;;;5114504;28;20058;-55
2023/09/21 02:25:52;;;;;;;15.25;1.70;;;9.60;99.90;;;;;;5112505;28;20378;-55
2023/09/21 02:28:22;;;;;;;15.68;1.98;;;9.50;99.90;;;;;;5101598;28;20055;-56
2023/09/21 02:30:51;;;;;;;11.68;1.55;;;9.60;99.90;;;;;;5110144;28;20044;-55
2023/09/21 02:33:22;;;;;;;13.73;1.83;;;9.60;99.90;;;;;;5119908;27;20386;-55
2023/09/21 02:35:50;;;;;;;14.68;1.92;;;9.60;99.90;;;;;;5135294;27;20054;-55
2023/09/21 02:38:22;;;;;;;14.90;2.25;;;9.60;99.90;;;;;;5135150;27;20055;-56
2023/09/21 02:40:50;;;;;;;14.07;1.95;;;9.60;99.90;;;;;;5135286;27;20047;-55
2023/09/21 02:43:18;;;;;;;13.90;1.58;;;9.60;99.90;;;;;;5121277;27;20403;-55
2023/09/21 02:45:49;;;;;;;9.63;1.70;;;9.50;99.90;;;;;;5113906;27;20051;-55
2023/09/21 02:48:16;;;;;;;12.15;1.52;;;9.50;99.90;;;;;;5114667;28;20047;-55
2023/09/21 02:50:49;;;;;;;14.00;1.48;;;9.50;99.90;;;;;;5113988;28;20060;-55
2023/09/21 02:53:21;;;;;;;11.93;1.40;;;9.50;99.90;;;;;;5113263;28;20040;-55
2023/09/21 02:55:52;;;;;;;9.30;1.35;;;9.50;99.90;;;;;;5113271;28;20036;-55
2023/09/21 02:58:22;;;;;;;12.40;1.85;;;9.50;99.90;;;;;;5113134;28;20042;-57
2023/09/21 03:00:52;;;;;;;6.22;1.35;;;9.50;99.90;;;;;;5114490;28;20070;-58
2023/09/21 03:03:21;;;;;;;10.60;1.50;;;9.50;99.90;;;;;;5125803;27;20478;-57
2023/09/21 03:05:52;;;;;;;13.18;1.65;;;9.40;99.90;;;;;;5132892;27;20062;-57
2023/09/21 03:08:22;;;;;;;9.38;1.42;;;9.40;99.90;;;;;;5134862;27;20042;-56
2023/09/21 03:10:55;;;;;;;11.20;1.83;;;9.40;99.90;;;;;;5132816;27;20047;-58
2023/09/21 03:13:23;;;;;;;7.82;1.30;;;9.40;99.90;;;;;;5119062;27;20044;-58
2023/09/21 03:15:58;;;;;;;17.02;1.58;;;10.00;99.90;;;;;;5112715;27;20055;-56
2023/09/21 03:18:28;;;;;;;8.77;1.48;;;9.40;99.90;;;;;;5113116;28;20040;-56
2023/09/21 03:20:57;;;;;;;18.98;1.73;;;9.40;99.90;;;;;;5112584;28;20051;-55
2023/09/21 03:23:28;;;;;;;10.80;1.58;;;9.40;99.90;;;;;;5112674;28;20036;-57
2023/09/21 03:25:55;;;;;;;16.52;1.60;;;9.40;99.90;;;;;;5112222;28;20047;-55
2023/09/21 03:28:24;;;;;;;8.57;1.70;;;9.40;99.90;;;;;;5113792;28;20044;-56
2023/09/21 03:30:56;;;;;;;12.93;1.40;;;9.40;99.90;;;;;;5113842;28;20039;-55
2023/09/21 03:33:24;;;;;;;10.15;1.50;;;9.40;99.90;;;;;;5126874;27;20040;-55
2023/09/21 03:35:53;;;;;;;8.95;2.00;;;9.40;99.90;;;;;;5131891;27;20050;-55
2023/09/21 03:38:22;;;;;;;12.23;1.45;;;9.40;99.90;;;;;;5132443;27;20051;-55
2023/09/21 03:40:52;;;;;;;12.23;1.67;;;9.40;99.90;;;;;;5132623;27;20047;-56
2023/09/21 03:43:21;;;;;;;11.75;1.67;;;9.40;99.90;;;;;;5118293;27;20036;-55
2023/09/21 03:45:49;;;;;;;16.60;1.63;;;9.40;99.90;;;;;;5095990;27;20411;-55
2023/09/21 03:48:18;;;;;;;15.23;3.15;;;9.30;99.90;;;;;;5132745;27;20039;-55
2023/09/21 03:50:47;;;;;;;14.57;1.63;;;9.30;99.90;;;;;;5118590;27;20048;-55
2023/09/21 03:53:16;;;;;;;12.85;1.73;;;9.30;99.90;;;;;;5111647;28;20296;-55
2023/09/21 03:55:46;;;;;;;15.68;1.92;;;9.30;99.90;;;;;;5111664;28;20040;-55
2023/09/21 03:58:15;;;;;;;10.93;1.30;;;9.30;99.90;;;;;;5113259;28;20043;-56
2023/09/21 04:00:46;;;;;;;17.00;1.63;;;9.20;99.90;;;;;;5113354;28;20043;-55
2023/09/21 04:03:14;;;;;;;12.63;1.13;;;9.20;99.90;;;;;;5123561;27;20046;-55
2023/09/21 04:06:09;;;;;;;15.13;1.73;;;9.10;99.90;;;;;;5132869;27;20059;-55
2023/09/21 04:08:36;;;;;;;10.25;1.50;;;9.20;99.90;;;;;;5132529;27;20482;-55
2023/09/21 04:11:04;;;;;;;11.45;1.63;;;9.10;99.90;;;;;;5132249;27;20043;-56
2023/09/21 04:13:32;;;;;;;12.15;1.67;;;9.10;99.90;;;;;;5118936;27;20044;-56
2023/09/21 04:16:05;;;;;;;15.63;1.65;;;9.00;99.90;;;;;;5112529;27;20070;-56
2023/09/21 04:18:33;;;;;;;12.38;1.27;;;9.00;99.90;;;;;;5092722;28;20047;-56
2023/09/21 04:21:06;;;;;;;12.82;1.63;;;8.90;99.90;;;;;;5111290;28;20052;-55
2023/09/21 04:23:46;;;;;;;10.80;1.75;;;8.90;99.90;;;;;;5111778;28;20042;-56
2023/09/21 04:26:15;;;;;;;13.13;1.83;;;8.80;99.90;;;;;;5112383;28;20051;-55
2023/09/21 04:28:47;;;;;;;14.45;1.90;;;8.80;99.90;;;;;;5112698;28;20039;-55
2023/09/21 04:31:15;;;;;;;19.25;1.75;;;8.80;99.90;;;;;;5109011;28;20047;-55
2023/09/21 04:33:43;;;;;;;9.93;0.98;;;8.70;99.90;;;;;;5116818;27;20395;-55
2023/09/21 04:36:11;;;;;;;19.73;1.35;;;8.70;99.90;;;;;;5107512;28;20051;-56
2023/09/21 04:38:39;;;;;;;9.50;1.17;;;8.60;99.90;;;;;;5112390;28;20395;-55
2023/09/21 04:41:14;;;;;;;10.82;1.25;;;8.60;99.90;;;;;;5111297;28;20047;-55
2023/09/21 04:43:44;;;;;;;11.10;2.63;;;8.60;99.90;;;;;;5111150;28;20031;-55
2023/09/21 04:46:13;;;;;;;11.93;1.38;;;8.40;99.90;;;;;;5110689;27;20039;-56
2023/09/21 04:48:41;;;;;;;12.25;1.35;;;8.40;99.90;;;;;;5095206;27;20059;-56
2023/09/21 04:51:16;;;;;;;8.98;1.52;;;8.40;99.90;;;;;;5117884;27;20510;-55
2023/09/21 04:53:45;;;;;;;12.95;1.65;;;8.40;99.90;;;;;;5089854;28;20056;-55
2023/09/21 04:56:13;;;;;;;10.38;1.50;;;8.40;99.90;;;;;;5107481;28;20055;-55
2023/09/21 04:58:41;;;;;;;11.95;1.60;;;8.30;99.90;;;;;;5120535;27;20395;-55
2023/09/21 05:01:10;;;;;;;10.07;1.90;;;8.30;99.90;;;;;;5129351;27;20043;-55
2023/09/21 05:03:38;;;;;;;12.63;1.50;;;8.30;99.90;;;;;;5099001;27;20059;-55
2023/09/21 05:06:07;;;;;;;9.48;1.27;;;8.30;99.90;;;;;;5104076;28;20063;-56
2023/09/21 05:08:37;;;;;;;11.43;1.65;;;8.20;99.90;;;;;;5105370;28;20448;-56
2023/09/21 05:11:05;;;;;;;9.60;1.63;;;8.30;99.90;;;;;;5103949;28;20047;-55
2023/09/21 05:13:33;;;;;;;20.23;1.80;;;8.30;99.90;;;;;;5104918;28;20051;-55
2023/09/21 05:16:01;;;;;;;24.40;1.80;;;8.30;99.90;;;;;;5105810;28;20062;-55
2023/09/21 05:18:30;;;;;;;9.13;1.20;;;8.40;99.90;;;;;;5106180;28;20670;-56
2023/09/21 05:20:58;;;;;;;16.17;2.60;;;8.40;99.90;;;;;;5107727;28;20062;-56
2023/09/21 05:23:26;;;;;;;12.70;1.42;;;8.40;99.90;;;;;;5112437;27;20291;-55
2023/09/21 05:25:56;;;;;;;20.98;2.50;;;8.40;99.90;;;;;;5125934;27;20051;-55
2023/09/21 05:28:24;;;;;;;14.18;1.60;;;8.50;99.90;;;;;;5109776;28;20035;-56
2023/09/21 05:30:54;;;;;;;12.20;2.17;;;8.50;99.90;;;;;;5105302;28;20058;-56
2023/09/21 05:33:21;;;;;;;10.95;1.42;;;8.50;99.90;;;;;;5113119;27;20054;-56
2023/09/21 05:35:51;;;;;;;11.93;1.55;;;8.60;99.90;;;;;;5132543;27;20051;-55
2023/09/21 05:38:19;;;;;;;10.23;1.20;;;8.60;99.90;;;;;;5125630;27;20051;-55
2023/09/21 05:40:46;;;;;;;17.25;1.30;;;8.60;99.90;;;;;;5113282;27;20035;-56
2023/09/21 05:43:15;;;;;;;13.95;1.83;;;8.60;99.90;;;;;;5111375;27;20049;-56
2023/09/21 05:45:43;;;;;;;11.75;1.77;;;8.60;99.90;;;;;;5112180;28;20047;-56
2023/09/21 05:48:15;;;;;;;9.18;1.08;;;8.70;99.90;;;;;;5097682;27;20141;-56
2023/09/21 05:50:43;;;;;;;22.92;1.60;;;8.60;99.90;;;;;;5107895;28;20054;-55
2023/09/21 05:53:11;;;;;;;12.32;1.98;;;8.70;99.90;;;;;;5112582;27;20040;-56
2023/09/21 05:55:43;;;;;;;19.95;2.00;;;8.60;99.90;;;;;;5097613;28;20502;-56
2023/09/21 05:58:11;;;;;;;8.35;1.42;;;8.60;99.90;;;;;;5121014;27;20509;-56
2023/09/21 06:00:40;;;;;;;18.83;2.40;;;8.60;99.90;;;;;;5114829;28;20051;-55
2023/09/21 06:03:08;;;;;;;7.70;1.67;;;8.60;99.90;;;;;;5113073;27;20051;-55
2023/09/21 06:05:37;;;;;;;16.70;2.15;;;8.50;99.90;;;;;;5110732;28;20291;-55
2023/09/21 06:08:05;;;;;;;6.85;1.80;;;8.50;99.90;;;;;;5114441;28;20052;-55
2023/09/21 06:10:32;;;;;;;11.80;1.67;;;8.50;99.90;;;;;;5114105;27;20529;-55
2023/09/21 06:13:00;;;;;;;17.65;2.47;;;8.50;99.90;;;;;;5114716;27;20485;-56
2023/09/21 06:15:28;;;;;;;16.17;2.03;;;8.40;99.90;;;;;;5114871;28;20399;-57
2023/09/21 06:17:56;;;;;;;7.13;1.90;;;8.40;99.90;;;;;;5111035;27;20055;-56
2023/09/21 06:20:26;;;;;;;12.23;1.80;;;8.40;99.90;;;;;;5109205;27;20039;-56
2023/09/21 06:22:55;;;;;;;12.57;1.90;;;8.40;99.90;;;;;;5117711;27;20160;-55
2023/09/21 06:25:23;;;;;;;21.92;2.20;;;8.30;99.90;;;;;;5107127;27;20475;-55
2023/09/21 06:27:51;;;;;;;13.20;2.70;;;8.30;99.90;;;;;;5093362;27;20413;-56
2023/09/21 06:30:22;;;;;;;8.57;2.00;;;8.30;99.90;;;;;;5091818;27;20059;-55
2023/09/21 06:32:50;;;;;;;12.60;2.03;;;8.30;99.90;;;;;;5108273;27;20047;-54
2023/09/21 06:35:19;;;;;;;21.30;3.05;;;8.30;99.90;;;;;;5094960;28;20044;-56
2023/09/21 06:37:48;;;;;;;18.08;2.70;;;8.30;99.90;;;;;;5101323;28;20035;-56
2023/09/21 06:40:15;;;;;;;13.20;1.88;;;8.30;99.90;;;;;;5112134;27;20036;-56
2023/09/21 06:42:43;;;;;;;11.20;1.98;;;8.30;99.90;;;;;;5114209;27;20491;-56
2023/09/21 06:45:11;;;;;;;13.65;1.80;;;8.30;99.90;;;;;;5111461;28;20054;-57
2023/09/21 06:47:38;;;;;;;13.50;2.28;;;8.30;99.90;;;;;;5111211;28;20044;-56
2023/09/21 06:50:07;;;;;;;15.85;2.10;;;8.40;99.90;;;;;;5100832;27;20047;-57
2023/09/21 06:52:35;;;;;;;20.20;1.83;;;8.40;99.90;;;;;;5110610;28;20044;-56
2023/09/21 06:55:05;;;;;;;13.38;2.00;;;8.40;99.90;;;;;;5111083;28;20044;-57
2023/09/21 06:57:35;;;;;;;14.35;2.35;;;8.50;99.90;;;;;;5109673;28;20047;-56
2023/09/21 07:00:09;;;;;;;22.80;1.92;;;8.60;99.90;;;;;;5109605;28;20054;-57
2023/09/21 07:02:36;;;;;;;21.10;2.72;;;8.60;99.90;;;;;;5114270;27;20039;-55
2023/09/21 07:05:05;;;;;;;10.73;2.05;;;8.70;99.90;;;;;;5099405;27;20414;-55
2023/09/21 07:07:36;;;;;;;9.82;2.28;;;8.80;99.90;;;;;;5109145;28;20040;-55
2023/09/21 07:10:05;;;;;;;7.47;1.30;;;8.80;99.90;;;;;;5111484;27;20043;-55
2023/09/21 07:12:33;;;;;;;12.45;1.60;;;8.80;99.90;;;;;;5131439;27;20047;-55
2023/09/21 07:15:01;;;;;;;14.85;1.80;;;8.90;99.90;;;;;;5118778;27;20442;-55
2023/09/21 07:17:29;;;;;;;10.63;1.65;;;9.00;99.90;;;;;;5108460;27;20058;-55
2023/09/21 07:19:57;;;;;;;9.05;1.50;;;9.10;99.90;;;;;;5111307;27;20062;-58
2023/09/21 07:22:24;;;;;;;14.10;2.65;;;9.20;99.90;;;;;;5105693;28;20044;-56
2023/09/21 07:24:54;;;;;;;9.80;1.80;;;9.30;99.90;;;;;;5126862;27;20040;-56
2023/09/21 07:27:22;;;;;;;11.95;2.53;;;9.40;99.90;;;;;;5129141;27;20631;-57
2023/09/21 07:29:50;;;;;;;16.58;1.90;;;9.40;99.90;;;;;;5110300;28;20495;-55
2023/09/21 07:32:18;;;;;;;11.35;1.45;;;9.50;99.90;;;;;;5108440;27;20040;-54
2023/09/21 07:34:48;;;;;;;7.50;2.03;;;9.60;99.90;;;;;;5108116;27;20040;-57
2023/09/21 07:37:16;;;;;;;15.20;1.38;;;9.70;99.90;;;;;;5110798;27;20316;-57
2023/09/21 07:39:44;;;;;;;12.05;1.33;;;9.70;99.90;;;;;;5113530;27;20044;-55
2023/09/21 07:42:11;;;;;;;12.43;1.90;;;9.80;99.90;;;;;;5118267;27;20050;-57
2023/09/21 07:44:44;;;;;;;12.38;1.55;;;9.90;99.90;;;;;;5113105;27;20044;-57
2023/09/21 07:47:12;;;;;;;10.70;1.52;;;9.90;99.90;;;;;;5110056;28;20048;-55
2023/09/21 07:49:40;;;;;;;8.40;1.40;;;10.00;99.90;;;;;;5109013;28;20039;-55
2023/09/21 07:52:08;;;;;;;8.88;2.40;;;10.10;99.90;;;;;;5109384;28;20054;-58
2023/09/21 07:54:35;;;;;;;14.48;1.65;;;10.10;99.90;;;;;;5126572;27;20036;-54
2023/09/21 07:57:04;;;;;;;10.88;1.25;;;10.20;99.90;;;;;;5130076;27;20494;-54
2023/09/21 07:59:34;;;;;;;10.15;1.42;;;10.30;99.90;;;;;;5108801;28;20524;-55
2023/09/21 08:02:03;;;;;;;10.52;1.40;;;10.40;99.90;;;;;;5111431;27;20036;-55
2023/09/21 08:04:31;;;;;;;16.80;2.20;;;10.40;99.90;;;;;;5113562;27;20040;-56
2023/09/21 08:07:01;;;;;;;7.20;1.50;;;10.60;99.90;;;;;;5098972;28;20058;-55
2023/09/21 08:09:29;;;;;;;9.55;1.70;;;10.60;99.90;;;;;;5109510;28;20063;-55
2023/09/21 08:12:00;;;;;;;5.90;1.30;;;10.70;99.90;;;;;;5104513;27;20066;-57
2023/09/21 08:14:29;;;;;;;9.82;1.88;;;10.80;99.90;;;;;;5125289;27;20070;-56
2023/09/21 08:16:59;;;;;;;8.63;1.63;;;10.90;99.90;;;;;;5098547;27;20052;-57
2023/09/21 08:19:27;;;;;;;8.30;1.30;;;11.00;99.90;;;;;;5105048;27;20636;-56
2023/09/21 08:21:55;;;;;;;8.90;1.63;;;11.00;99.90;;;;;;5109838;27;20044;-56
2023/09/21 08:24:23;;;;;;;10.45;1.80;;;11.10;99.90;;;;;;5115231;27;20051;-56
2023/09/21 08:26:51;;;;;;;6.95;1.00;;;11.20;99.90;;;;;;5107588;28;20035;-56
2023/09/21 08:29:21;;;;;;;7.38;1.00;;;11.30;99.90;;;;;;5126941;27;20055;-55
2023/09/21 08:31:49;;;;;;;7.07;1.30;;;11.30;99.90;;;;;;5097321;27;20510;-55
2023/09/21 08:34:19;;;;;;;11.07;1.58;;;11.40;99.90;;;;;;5099656;28;20505;-55
2023/09/21 08:36:47;;;;;;;12.38;1.63;;;11.50;99.90;;;;;;5105326;28;20487;-55
2023/09/21 08:39:15;;;;;;;9.38;2.40;;;11.60;99.90;;;;;;5108849;28;20044;-55
2023/09/21 08:41:50;;;;;;;9.32;1.67;;;11.60;99.90;;;;;;5105423;27;20071;-55
2023/09/21 08:44:19;;;;;;;12.27;1.42;;;11.80;99.90;;;;;;5101782;28;20043;-56
2023/09/21 08:46:51;;;;;;;17.63;1.65;;;11.80;99.90;;;;;;5108981;28;20055;-56
2023/09/21 08:49:21;;;;;;;12.18;1.63;;;11.90;99.90;;;;;;5118916;27;20047;-55
2023/09/21 08:51:52;;;;;;;13.18;1.42;;;12.00;99.90;;;;;;5108503;28;20055;-55
2023/09/21 08:54:23;;;;;;;6.90;1.13;;;12.10;99.90;;;;;;5113589;27;20070;-55
2023/09/21 08:56:55;;;;;;;8.13;1.33;;;12.20;99.90;;;;;;5108672;28;20047;-55
2023/09/21 08:59:24;;;;;;;7.07;1.10;;;12.20;99.90;;;;;;5108741;28;20403;-55
2023/09/21 09:01:52;;;;;;;7.65;1.10;;;12.30;99.90;;;;;;5108701;28;20056;-56
2023/09/21 09:04:21;;;;;;;8.57;1.23;;;12.40;99.90;;;;;;5105920;27;20058;-60
2023/09/21 09:06:51;;;;;;;17.03;1.60;;;12.50;99.90;;;;;;5103975;28;20044;-57
2023/09/21 09:09:19;;;;;;;5.82;1.10;;;12.70;99.90;;;;;;5104846;28;20473;-55
2023/09/21 09:11:48;;;;;;;5.57;1.10;;;12.80;99.90;;;;;;5105602;27;20060;-56
2023/09/21 09:14:17;;;;;;;7.28;1.45;;;12.80;99.90;;;;;;5128911;27;20055;-55
2023/09/21 09:16:46;;;;;;;9.63;2.03;;;12.90;99.90;;;;;;5129520;27;20047;-56
2023/09/21 09:19:14;;;;;;;8.10;1.25;;;13.00;99.90;;;;;;5109387;27;20042;-55
2023/09/21 09:21:44;;;;;;;5.82;1.00;;;13.10;99.90;;;;;;5088112;28;20055;-55
2023/09/21 09:24:14;;;;;;;7.97;1.20;;;13.20;99.90;;;;;;5107338;28;20051;-56
2023/09/21 09:26:42;;;;;;;12.17;1.50;;;13.30;99.90;;;;;;5108393;28;20047;-56
2023/09/21 09:29:12;;;;;;;7.70;1.15;;;13.40;99.90;;;;;;5113734;27;20059;-55
2023/09/21 09:31:41;;;;;;;7.18;1.05;;;13.50;99.90;;;;;;5106439;28;20052;-56
2023/09/21 09:34:16;;;;;;;7.32;1.80;;;13.60;99.90;;;;;;5107061;28;20422;-56
2023/09/21 09:36:49;;;;;;;7.10;1.02;;;13.60;99.90;;;;;;5087757;28;20044;-56
2023/09/21 09:39:19;;;;;;;5.93;1.20;;;13.70;99.90;;;;;;5122582;28;20043;-56
2023/09/21 09:41:49;;;;;;;6.22;1.45;;;13.80;99.90;;;;;;5111397;28;20391;-56
2023/09/21 09:44:24;;;;;;;13.98;1.50;;;13.90;99.90;;;;;;5114263;28;20051;-56
2023/09/21 09:46:58;;;;;;;9.13;1.48;;;14.00;99.90;;;;;;5108270;28;20538;-56
2023/09/21 09:49:30;;;;;;;15.68;1.60;;;14.10;99.90;;;;;;5104709;28;20048;-56
2023/09/21 09:52:00;;;;;;;9.65;1.38;;;14.30;99.90;;;;;;5107702;28;20040;-58
2023/09/21 09:54:30;;;;;;;4.00;1.10;;;14.40;99.90;;;;;;5098927;28;20551;-56
2023/09/21 09:56:59;;;;;;;4.13;1.07;;;14.50;99.90;;;;;;5088185;28;20055;-57
2023/09/21 09:59:28;;;;;;;5.50;1.15;;;14.70;99.90;;;;;;5100897;28;20292;-56
2023/09/21 10:01:58;;;;;;;7.25;0.93;;;14.70;99.90;;;;;;5099288;28;20040;-56
2023/09/21 10:04:33;;;;;;;7.13;1.17;;;14.80;99.90;;;;;;5113410;28;20048;-57
2023/09/21 10:07:01;;;;;;;7.25;0.95;;;14.90;99.90;;;;;;5108095;28;20403;-56
2023/09/21 10:09:31;;;;;;;9.05;1.65;;;14.90;99.90;;;;;;5094065;28;20618;-56
2023/09/21 10:12:03;;;;;;;12.20;1.85;;;15.00;99.90;;;;;;5104100;28;20051;-56
2023/09/21 10:14:36;;;;;;;6.35;1.02;;;15.00;99.90;;;;;;5106300;28;20056;-55
2023/09/21 10:17:05;;;;;;;10.57;1.42;;;15.10;99.90;;;;;;5108578;28;20048;-56
2023/09/21 10:19:38;;;;;;;8.32;1.40;;;15.20;99.90;;;;;;5109513;28;20419;-56
2023/09/21 10:22:26;;;;;;;6.90;0.98;;;15.20;99.90;;;;;;5113329;27;20059;-55
2023/09/21 10:25:00;;;;;;;9.23;1.58;;;15.20;99.90;;;;;;5094056;27;20043;-57
2023/09/21 10:27:28;;;;;;;4.50;1.10;;;15.20;99.90;;;;;;5097884;28;20372;-57
2023/09/21 10:30:08;;;;;;;5.38;1.05;;;15.30;99.90;;;;;;5108218;28;20062;-56
2023/09/21 10:32:48;;;;;;;6.40;1.10;;;15.40;99.90;;;;;;5112083;27;20531;-55
2023/09/21 10:35:40;;;;;;;3.97;0.90;;;15.40;99.90;;;;;;5132069;27;20039;-57
2023/09/21 10:38:15;;;;;;;4.03;0.50;;;15.50;99.90;;;;;;5123506;27;20040;-56
2023/09/21 10:40:43;;;;;;;7.13;1.42;;;15.60;99.90;;;;;;5091079;28;20048;-56
2023/09/21 10:43:41;;;;;;;4.65;0.82;;;15.60;99.90;;;;;;5102621;27;20055;-56
2023/09/21 10:46:21;;;;;;;4.30;0.70;;;15.70;99.90;;;;;;5093345;28;20056;-56
2023/09/21 10:49:04;;;;;;;3.83;0.73;;;15.80;99.90;;;;;;5100394;27;20044;-56
2023/09/21 10:51:41;;;;;;;6.80;1.40;;;15.90;99.90;;;;;;5094326;28;20047;-58
2023/09/21 10:54:12;;;;;;;3.90;0.80;;;16.00;99.90;;;;;;5107833;28;20526;-56
2023/09/21 10:56:43;;;;;;;5.53;0.98;;;16.10;99.90;;;;;;5109712;27;20411;-56
2023/09/21 10:59:11;;;;;;;1.15;0.50;;;16.10;99.90;;;;;;5102514;27;20051;-57
2023/09/21 11:01:39;;;;;;;3.83;0.98;;;16.20;99.90;;;;;;5090951;28;20339;-55
2023/09/21 11:04:07;;;;;;;6.05;0.90;;;16.30;99.90;;;;;;5113513;27;20399;-55
2023/09/21 11:06:37;;;;;;;4.93;0.70;;;16.30;99.90;;;;;;5110811;28;20052;-56
2023/09/21 11:09:07;;;;;;;3.58;1.45;;;16.40;99.90;;;;;;5110531;28;20503;-55
2023/09/21 11:11:36;;;;;;;4.80;0.60;;;16.50;99.90;;;;;;5110187;28;20040;-56
2023/09/21 11:14:05;;;;;;;4.00;1.15;;;16.60;99.90;;;;;;5107079;27;20039;-56
2023/09/21 11:16:33;;;;;;;5.15;0.82;;;16.50;99.90;;;;;;5109760;28;20523;-56
2023/09/21 11:19:01;;;;;;;4.03;0.77;;;16.40;99.90;;;;;;5110748;27;20647;-56
2023/09/21 11:21:29;;;;;;;5.45;1.00;;;16.40;99.90;;;;;;5110616;28;20475;-56
2023/09/21 11:23:58;;;;;;;4.97;0.88;;;16.40;99.90;;;;;;5092265;28;20054;-56
2023/09/21 11:26:27;;;;;;;7.28;1.05;;;16.50;99.90;;;;;;5110185;28;20040;-56
2023/09/21 11:28:58;;;;;;;6.13;1.58;;;16.80;99.90;;;;;;5104008;27;20058;-55
2023/09/21 11:31:30;;;;;;;5.97;1.02;;;17.10;99.90;;;;;;5109775;28;20503;-56
2023/09/21 11:34:07;;;;;;;1.92;0.93;;;17.40;99.90;;;;;;5115975;27;20058;-56
2023/09/21 11:36:36;;;;;;;3.13;0.68;;;17.50;99.90;;;;;;5109682;28;20043;-56
2023/09/21 11:39:07;;;;;;;10.52;1.20;;;17.60;99.90;;;;;;5110481;28;20047;-57
2023/09/21 11:41:37;;;;;;;4.80;1.02;;;17.70;99.90;;;;;;5110197;28;20043;-56
2023/09/21 11:44:06;;;;;;;4.70;0.80;;;17.90;99.90;;;;;;5107520;27;20506;-55
2023/09/21 11:46:34;;;;;;;3.15;0.60;;;18.10;99.90;;;;;;5109704;28;20044;-56
2023/09/21 11:49:03;;;;;;;5.72;1.00;;;18.40;99.90;;;;;;5108641;28;20063;-56
2023/09/21 11:51:31;;;;;;;2.08;0.47;;;18.80;99.90;;;;;;5110144;28;20039;-56
2023/09/21 11:53:59;;;;;;;5.20;0.60;;;19.30;99.90;;;;;;5107917;28;20044;-56
2023/09/21 11:56:28;;;;;;;5.55;0.60;;;19.70;99.90;;;;;;5110046;28;20055;-56
2023/09/21 11:58:58;;;;;;;2.30;0.70;;;19.80;99.90;;;;;;5106849;27;20071;-56
2023/09/21 12:01:28;;;;;;;2.67;0.40;;;19.60;99.90;;;;;;5110139;28;20059;-58
2023/09/21 12:03:57;;;;;;;4.00;0.45;;;19.40;99.90;;;;;;5110280;27;20051;-60
2023/09/21 12:06:27;;;;;;;2.42;0.63;;;19.30;99.90;;;;;;5109635;28;20351;-60
2023/09/21 12:08:57;;;;;;;;;;;19.30;99.90;;;;;;5114389;27;20047;-58
2023/09/21 12:11:25;;;;;;;;;;;19.50;99.90;;;;;;5090187;28;19920;-61
2023/09/21 12:13:53;;;;;;;3.30;0.50;;;19.80;99.90;;;;;;5080555;28;20504;-62
2023/09/21 12:16:20;;;;;;;2.22;0.50;;;20.20;99.90;;;;;;5089353;28;20036;-61
2023/09/21 12:18:48;;;;;;;6.18;0.75;;;20.60;99.90;;;;;;5118814;27;20039;-61
2023/09/21 12:21:20;;;;;;;5.50;0.63;;;21.10;99.90;;;;;;5109681;27;20047;-60
2023/09/21 12:23:49;;;;;;;1.10;0.50;;;21.70;99.90;;;;;;5106978;27;20043;-57
2023/09/21 12:26:17;;;;;;;2.10;0.47;;;22.10;99.90;;;;;;5108003;28;20050;-56
2023/09/21 12:28:45;;;;;;;2.90;0.50;;;22.10;98.30;;;;;;5100620;27;20543;-57
2023/09/21 12:31:15;;;;;;;2.22;0.70;;;22.00;99.50;;;;;;5086842;28;20043;-56
2023/09/21 12:33:43;;;;;;;4.30;0.57;;;22.10;99.70;;;;;;5110686;27;20364;-56
2023/09/21 12:36:15;;;;;;;2.63;0.60;;;22.20;99.50;;;;;;5106611;28;20402;-58
2023/09/21 12:38:56;;;;;;;5.15;0.75;;;22.00;98.20;;;;;;5108742;28;20402;-57
2023/09/21 12:41:24;;;;;;;4.95;0.80;;;21.40;98.70;;;;;;5109258;28;20058;-55
2023/09/21 12:43:52;;;;;;;4.25;0.75;;;20.80;99.10;;;;;;5103386;28;20075;-56
2023/09/21 12:46:21;;;;;;;2.25;0.60;;;20.20;99.80;;;;;;5097725;27;20409;-57
2023/09/21 12:48:49;;;;;;;5.22;0.60;;;19.80;99.90;;;;;;5101212;27;20044;-56
2023/09/21 12:51:16;;;;;;;2.97;0.65;;;19.40;99.90;;;;;;5108772;28;20039;-56
2023/09/21 12:53:44;;;;;;;13.18;0.93;;;19.20;99.90;;;;;;5099971;28;20044;-56
2023/09/21 12:56:14;;;;;;;2.38;0.47;;;19.10;99.90;;;;;;5096318;28;20055;-55
2023/09/21 12:58:41;;;;;;;7.20;0.90;;;19.00;99.90;;;;;;5090477;28;20509;-55
2023/09/21 13:01:09;;;;;;;2.80;0.50;;;18.90;99.90;;;;;;5091425;28;20039;-56